Findlay Airport
KFDY : rendu visible

Aérodrome :











RETROUVEZ-NOUS SUR...

 
LOGIN :

S'inscrire | Disclaimer

   EN    FR    IT 

 









Légende :    VFR   VFR Marginal   IFR   IFR Intensif   IFR Très Intensif
Visi : 
Plafond : 
>= 8 km
>= 3000ft
5 à 8 km
1000 à 3000 ft
1500m à 5 km
500 à 1000 ft
800 à 1500m
200 à 500 ft
< 800m
< 200 ft
Symboles :   Orages  Brouillard  Fortes neiges  Fortes précipitations  Vent > 20 kt






- Altitude de l'aérodrome : 813 ft


KFDY - Findlay

DERNIER METAR :
  • 300153Z AUTO 20004KT 10SM CLR 17/14 A2999 RMK AO2 SLP147 T01720144

METARs EXPIRÉS :
  • 300053Z AUTO 22003KT 10SM CLR 19/14 A2997 RMK AO2 SLP141 T01940139
  • 292353Z AUTO 32005KT 10SM CLR 22/13 A2996 RMK AO2 SLP136 60003 T02170128 10222 20183 53001

TAF KFDY
Valide du 30 à 00h jusqu'au 31 à 00h UTC


292320Z 3000/3024 30006KT P6SM SKC
FM301800 32010KT P6SM BKN100
FIR KZOB / Amérique du Nord



MET'MAP, la Météo Aéronautique d'un coup d'oeil ! - Copyright ORBIFLY Décembre 2007 - Disclaimer

ORBIFLY MET'MAP TEAM :

Programmation & Développement : Alexandra Zaïnal
Sur une idée originale de : Baudouin d'Aumeries
Assistance à la programmation : Marc-Olivier Méhu
Soutien technique & logistique : Manuel Goepfert

Contact : metmap@orbifly.com




SOURCES & CREDITS :

   NOAA       Earth
Advisory